AirNav   Everest Fuels
 
 954 users online  

SC43 Moore's Field Airport
Williamston, South Carolina, USA

GOING TO WILLIAMSTON?


FAA INFORMATION EFFECTIVE 10 SEPTEMBER 2020

Location

FAA Identifier: SC43
Lat/Long: 34-35-37.4130N 082-23-56.4440W
34-35.623550N 082-23.940733W
34.5937258,-82.3990122
(estimated)
Elevation: 871 ft. / 265 m (estimated)
Variation: 04W (1990)
From city: 5 miles SE of WILLIAMSTON, SC
Time zone: UTC -4 (UTC -5 during Standard Time)
Zip code: 29669

Airport Operations

Airport use: Private use. Permission required prior to landing
Activation date: 12/1991
Control tower: no
ARTCC: ATLANTA CENTER
FSS: ANDERSON FLIGHT SERVICE STATION
Attendance: UNATNDD
Wind indicator: no
Segmented circle: no

Airport Communications

WX AWOS-3 at GYH (10 nm N): 127.325 (864-277-5674)
WX ASOS at GMU (15 nm N): 127.075 (864-239-0014)
WX ASOS at AND (16 nm W): 120.675
WX AWOS-3 at LQK (20 nm NW): 120.0 (864-843-5801)

Nearby radio navigation aids

VOR radial/distance  VOR name  Freq  Var
ELWr061/21.8ELECTRIC CITY VORTAC108.6000E
GRDr330/23.8GREENWOOD VORTAC115.5001W
SPAr223/35.2SPARTANBURG VORTAC115.7002W

 
NDB name  Hdg/Dist  Freq  Var  ID
DYANA163/6.233804WGY --. -.--
JUDKY197/11.452105WGM --. --
CORONACA330/25.623907WGIW --. .. .--
FAIRMONT233/27.524805WFRT ..-. .-. -
UNION COUNTY268/37.732606WUOT ..- --- -

Airport Services

Runway Information

Runway 9/27

Dimensions: 1400 x 60 ft. / 427 x 18 m
Surface: turf
RUNWAY 9  RUNWAY 27
Traffic pattern: leftleft

Airport Ownership and Management from official FAA records

Ownership: Privately-owned
Owner: LARRY MOORE
150 BEECH SPRINGS CH. RD.
PELZER, SC 29669
Phone (864) 243-2276
Manager: LARRY MOORE
150 BEECH SPRINGS CH. RD.
PELZER, SC 29669
Phone (864) 243-2276

Additional Remarks

FOR CD CTC ATLANTA ARTCC AT 770-210-7692.

Instrument Procedures

There are no published instrument procedures at SC43.

Some nearby airports with instrument procedures:

KGYH - Donaldson Field Airport (10 nm N)
KGMU - Greenville Downtown Airport (15 nm N)
KAND - Anderson Regional Airport (16 nm W)
KLQK - Pickens County Airport (20 nm NW)
KGSP - Greenville Spartanburg International Airport (20 nm NE)
 
Loc | Ops | Rwys | IFR | FBO | Links
Com | Nav | Svcs | Stats | Notes
Area around SC43 (Moore's Field Airport)
 
Road maps at: MapQuest Bing Google
 
Aerial photo
No photo
 
Sectional chart

 
Airport distance calculator
Flying to Moore's Field Airport? Find the distance to fly.

From to SC43

Sunrise and sunset
Times for 18-Sep-2020
 Local
(UTC-4)
 Zulu
(UTC)
Morning civil twilight06:5110:51
Sunrise07:1611:16
Sunset19:3023:30
Evening civil twilight19:5623:56

Current date and time
Zulu (UTC)  19-Sep-2020 03:33:21
Local (UTC-4)  18-Sep-2020 23:33:21
 
METAR
KGYH 
10nm N 
190315Z AUTO 02004KT 10SM CLR 20/15 A3009 RMK AO2
KGMU 
16nm N 
190253Z AUTO 01006KT 10SM CLR 21/15 A3010 RMK AO2 SLP182 T02060150 51024
KAND 
17nm W 
190256Z AUTO 03005KT 10SM OVC070 22/14 A3007 RMK AO2 SLP173 T02170139 51023
KLQK 
20nm NW 
190315Z AUTO 04005KT 10SM BKN060 20/15 A3008 RMK AO2 T01950153
TAF
KGMU 
16nm N 
181737Z 1818/1918 04009KT P6SM SCT040 BKN250 FM190000 02008KT P6SM FEW050 BKN250 FM190600 03010KT P6SM BKN050 FM191500 05013G20KT P6SM SCT050 BKN100
KAND 
17nm W 
181737Z 1818/1918 04009KT P6SM SCT045 BKN250 FM182300 04006KT P6SM BKN060 FM191400 06013G20KT P6SM BKN060
NOTAMs
Click for the latest NOTAMs
NOTAMs are issued by the DoD/FAA and will open in a separate window not controlled by AirNav.

 

 
 

Would you like to see your business listed on this page?

 If your business provides an interesting product or service to pilots, flight crews, aircraft, or users of the Moore's Field Airport, you should consider listing it here.  To start the listing process, click on the button below
 
Add a business
 

Other Pages about Moore's Field Airport

Update a link
 
Copyright © AirNav, LLC. All rights reserved. Privacy Policy  Contact